KOLV/OLV METAR and TAF weather

Enter ICAO airport designator
Station Type Date Time Source
KOLV METAR 2022/01/29 12:35 UTC NOAA

KOLV 291235Z AUTO 00000KT 10SM CLR M07/M13 A3037 RMK A01


Station Type Date Time Source
KOLV Decoded METAR 2022/01/29 12:35 UTC NOAA

Olive Branch, Olive Branch Airport, MS, United States (KOLV) 34-58-44N 089-47-13W
Jan 29, 2022 - 07:35 AM EST / 2022.01.29 1235 UTC
Wind: Calm:0
Visibility: 10 mile(s):0
Sky conditions: clear
Temperature: 19 F (-7 C)
Dew Point: 8 F (-13 C)
Relative Humidity: 62%
Pressure (altimeter): 30.37 in. Hg (1028 hPa)
ob: KOLV 291235Z AUTO 00000KT 10SM CLR M07/M13 A3037 RMK A01
cycle: 12

Station Type Date Time Source
KOLV TAF UTC NOAA

Error!

Example: see airport list